Higdon, Alabama
Current Conditions -  °F | °C
As of 11:55 AM on Monday 24 Nov 2014 (Local Time) from K4A6 Reporting Station
Scattered Clouds Scattered Clouds  
Wind Chill: 66°   Ceiling: Unl
Heat Index: 66°   Visibility: 10mi
Dew Point: 46°   Wind: 20mph
Humidity: 49%   Direction: 250°WSW
Pressure: 29.79"   Gusts: 29mph
Location:  34.85°N, 85.62°W
Report Text: K4A6 241755Z AUTO 25017G25KT 10SM SCT039 19/08 A2979 RMK AO2
Loading
Personal Weather Stations






























Interactive Weather Map New forecast layout! Learn more

10-Day Weather Forecast

Advertisements
Track Severe Weather on mobile